KRIL

Rifle Garfield County Airport

Rifle, Colorado, USA
KRIL 221132Z 2212/2312 00000KT P6SM SKC FM221900 27008KT P6SM SKC FM230300 VRB04KT P6SM SKC
Issued Valid From Valid To
Sep-22 @ 11:32 UTC
(3 hours ago)
Sep-22 @ 12:00 UTC
(3 hours ago)
Sep-23 @ 12:00 UTC
(in 21 hours)
to
to
to
KRIL 221132Z 2212/2312 00000KT P6SM SKC FM221900 27008KT P6SM SKC FM230300 VRB04KT P6SM SKC
Issued Sep-22 @ 11:32 UTC
(3 hours ago)
Valid From Sep-22 @ 12:00 UTC
(3 hours ago)
Valid To Sep-23 @ 12:00 UTC
(in 21 hours)
-
-
-